メインページ
METAR-TAF:

METAR-TAF

空港 :

小松島, 日本

緯度: 34-00N, 経度: 134-38E, 海抜: 3m

現時点の気象観測

当レポートは39分前の06:43(UTC)に作成
の風 10kt
気温 30°C
湿度 66%
気圧 1008 hPa
視程10km以上
高度2500ftの雲はほとんどない
高度5000ftの千切れ雲あり
高度23000ftの千切れ雲あり

METAR: RJOP 200643Z 17010KT 9999 FEW025 BKN050 BKN230 30/23 Q1008 RMK 1CU025 5SC050 A2977

時間: 16:22 (07:22 UTC)


TAF: 見つかりません

4,000以上の空港の気象観測と天気予報(METAR報とTAF報)

利用可能な観測所は地図上に黄色い丸と赤い丸で示す。

丸の上にカーソルを重ねると観測所名を参照できる。

次にクリックすると気象観測と天気予報を参照できる。

マップの切り替え:黒色「×」印の緑ボタンをクリックして拡大、「-」印の緑ボタンをクリックして縮小、緑色の三角印をクリックして隣りの地図に切り替え


METAR-TAF: